St. Paul, Alberta

Past 24 Hour Conditions

This table is a summary of hourly weather conditions for the past 24 hours. This summary includes the following parameters: temperature, humidity, dew point, wind speed and direction, air pressure, visibility and/or wind chill and humidex.
Date / Time
(MDT)
Conditions Temp (°F) Humidity (%) Dew Point (°F) Wind (mph) Pressure (inches) Visibility (miles)
23 April 2014
11:00 N/A 47 60 34 E 22 N/A N/A
10:00 N/A 47 60 34 E 27 N/A N/A
9:00 N/A 46 64 35 E 19 N/A N/A
8:00 N/A 45 68 35 E 18 N/A N/A
7:00 N/A 43   78 37 ENE 11 N/A N/A
6:00 N/A 44 76 37 E 14 N/A N/A
5:00 N/A 47 63 35 E 19 N/A N/A
4:00 N/A 48 62 35 E 19 N/A N/A
3:00 N/A 49 60 36 E 19 N/A N/A
2:00 N/A 50 61 37 ENE 14 N/A N/A
1:00 N/A 50 63 37 ENE 16 N/A N/A
00:00 N/A 51 61 38 ENE 16 N/A N/A
22 April 2014
23:00 N/A 52 56 37 ENE 18 N/A N/A
22:00 N/A 52 51 35 ENE 13 N/A N/A
21:00 N/A 53 46 33 ENE 13 N/A N/A
20:00 N/A 55 43 32 ENE 16 N/A N/A
19:00 N/A 57 38 32 ENE 18 N/A N/A
18:00 N/A 59 34 30 ENE 19 N/A N/A
17:00 N/A 61 33 32 ENE 20 N/A N/A
16:00 N/A 61 30 30 ENE 22 N/A N/A
15:00 N/A 62   31 31 ENE 18 N/A N/A
14:00 N/A 59 33 30 ENE 16 N/A N/A
13:00 N/A 56 39 32 ENE 18 N/A N/A
12:00 N/A 55 43 33 NE 14 N/A N/A
11:00 N/A 52 50 34 NE 12 N/A N/A
N/A
Not available
 ↑ 
Highest temperature
 ↓ 
Lowest temperature

If you require additional historical weather information, please visit Climate Data Online.